Time;durP1;ratioP1;P1;durP2;ratioP2;P2;SDS_P1;SDS_P2;PMS_P1;PMS_P2;Temp;Humidity;BMP_temperature;BMP_pressure;BME280_temperature;BME280_humidity;BME280_pressure;Samples;Min_cycle;Max_cycle;Signal;HPM_P1;HPM_P2
2021/07/22 00:00:16;;;;;;;10.18;5.30;;;;;;;20.10;52.74;100583.56;5053187;28;20037;-81
2021/07/22 00:02:45;;;;;;;10.45;4.65;;;;;;;20.07;52.77;100574.88;5052820;28;20045;-79
2021/07/22 00:05:14;;;;;;;11.00;5.20;;;;;;;19.96;53.35;100579.44;5052888;28;20077;-78
2021/07/22 00:07:44;;;;;;;8.02;4.65;;;;;;;19.89;53.48;100581.06;5052755;28;20072;-78
2021/07/22 00:10:14;;;;;;;11.35;4.90;;;;;;;19.87;54.01;100583.03;5053146;28;20045;-78
2021/07/22 00:12:43;;;;;;;10.10;5.35;;;;;;;19.79;54.60;100574.78;5053063;28;20041;-78
2021/07/22 00:15:12;;;;;;;11.07;5.25;;;;;;;19.84;54.73;100577.06;5053121;28;20045;-78
2021/07/22 00:17:40;;;;;;;9.70;5.20;;;;;;;19.97;53.99;100581.16;5053088;28;20127;-77
2021/07/22 00:20:10;;;;;;;11.07;5.78;;;;;;;19.94;54.15;100581.44;5052499;28;20053;-77
2021/07/22 00:22:39;;;;;;;8.48;4.90;;;;;;;19.90;54.02;100584.59;5052894;28;20045;-77
2021/07/22 00:25:10;;;;;;;9.48;5.45;;;;;;;19.83;54.22;100584.31;5051533;28;20063;-77
2021/07/22 00:27:39;;;;;;;8.60;5.15;;;;;;;19.85;54.45;100584.16;5052779;28;20045;-76
2021/07/22 00:30:08;;;;;;;8.18;4.85;;;;;;;19.78;54.04;100588.44;5052331;28;20037;-76
2021/07/22 00:32:36;;;;;;;10.65;5.05;;;;;;;19.87;54.66;100580.31;5051551;28;20101;-77
2021/07/22 00:35:05;;;;;;;9.23;5.22;;;;;;;19.81;54.82;100585.47;5052392;28;20806;-76
2021/07/22 00:37:33;;;;;;;10.63;5.40;;;;;;;19.66;55.30;100580.47;5052794;28;20056;-76
2021/07/22 00:40:01;;;;;;;10.48;5.00;;;;;;;19.64;55.52;100578.91;5052496;28;20068;-76
2021/07/22 00:42:55;;;;;;;11.65;5.35;;;;;;;19.41;56.37;100583.72;5051478;28;20132;-76
2021/07/22 00:45:23;;;;;;;;;;;;;;;19.22;57.00;100584.56;5052778;28;20047;-76
2021/07/22 00:47:52;;;;;;;10.45;5.40;;;;;;;19.13;58.80;100585.38;5056223;28;20023;-77
2021/07/22 00:50:20;;;;;;;11.50;6.03;;;;;;;19.00;59.52;100573.94;5056503;28;20072;-76
2021/07/22 00:52:49;;;;;;;12.35;5.60;;;;;;;18.92;60.22;100579.22;5056153;28;20048;-76
2021/07/22 00:55:19;;;;;;;10.88;5.60;;;;;;;18.88;59.65;100582.19;5056381;28;20388;-78
2021/07/22 00:57:49;;;;;;;9.88;5.30;;;;;;;18.86;58.85;100578.78;5055902;28;20127;-78
2021/07/22 01:00:17;;;;;;;9.90;5.38;;;;;;;18.87;58.72;100580.47;5056353;28;20041;-79
2021/07/22 01:02:46;;;;;;;11.52;5.38;;;;;;;18.87;58.80;100575.06;5056467;28;20049;-80
2021/07/22 01:05:17;;;;;;;10.57;5.40;;;;;;;18.87;58.65;100574.22;5056225;28;20045;-80
2021/07/22 01:07:45;;;;;;;11.98;5.13;;;;;;;18.89;58.45;100574.94;5056203;28;20049;-80
2021/07/22 01:10:13;;;;;;;9.13;5.63;;;;;;;18.96;58.61;100575.25;5056086;28;20045;-81
2021/07/22 01:12:41;;;;;;;13.82;6.03;;;;;;;18.95;61.03;100578.94;5056247;28;20395;-81
2021/07/22 01:15:12;;;;;;;12.98;5.82;;;;;;;18.82;61.93;100580.03;5054524;28;20063;-81
2021/07/22 01:17:43;;;;;;;11.02;5.85;;;;;;;18.74;63.35;100579.88;5056084;28;20048;-80
2021/07/22 01:20:15;;;;;;;9.25;5.70;;;;;;;18.61;62.99;100584.59;5056183;28;20059;-77
2021/07/22 01:22:44;;;;;;;15.57;6.38;;;;;;;18.52;63.90;100585.41;5055810;28;20098;-77
2021/07/22 01:25:13;;;;;;;9.98;6.18;;;;;;;18.44;65.01;100587.97;5055556;28;20045;-77
2021/07/22 01:27:42;;;;;;;11.70;6.50;;;;;;;18.34;65.88;100587.06;5055603;28;20055;-80
2021/07/22 01:30:11;;;;;;;11.73;6.25;;;;;;;18.37;65.09;100584.06;5055615;28;20124;-80
2021/07/22 01:32:39;;;;;;;8.35;5.50;;;;;;;18.34;65.84;100585.22;5055681;28;20073;-80
2021/07/22 01:35:09;;;;;;;10.35;6.15;;;;;;;18.29;67.03;100591.00;5055116;28;20052;-80
2021/07/22 01:37:40;;;;;;;9.85;6.10;;;;;;;18.56;65.80;100592.28;5055484;28;20045;-79
2021/07/22 01:40:10;;;;;;;11.25;5.90;;;;;;;18.65;64.00;100586.09;5055314;28;20049;-80
2021/07/22 01:42:39;;;;;;;12.80;6.10;;;;;;;18.73;63.95;100577.31;5055537;28;20483;-76
2021/07/22 01:45:09;;;;;;;11.88;6.03;;;;;;;18.67;65.55;100580.53;5054878;28;20049;-75
2021/07/22 01:47:37;;;;;;;8.63;6.18;;;;;;;18.68;65.78;100577.69;5055256;28;20037;-75
2021/07/22 01:50:07;;;;;;;10.65;6.07;;;;;;;18.65;66.57;100580.69;5054930;28;20045;-75
2021/07/22 01:52:35;;;;;;;12.00;6.88;;;;;;;18.47;67.85;100584.97;5055136;28;20049;-76
2021/07/22 01:55:06;;;;;;;11.88;6.65;;;;;;;18.33;68.99;100585.31;5054850;28;20376;-75
2021/07/22 01:57:39;;;;;;;11.10;6.72;;;;;;;18.19;69.63;100589.22;5053359;28;20049;-74
2021/07/22 02:00:09;;;;;;;10.77;7.00;;;;;;;18.43;69.14;100586.22;5054899;28;20037;-75
2021/07/22 02:02:38;;;;;;;11.23;7.07;;;;;;;18.46;69.07;100584.13;5055002;28;20124;-75
2021/07/22 02:05:07;;;;;;;11.48;6.25;;;;;;;18.24;70.12;100587.00;5054847;28;20041;-75
2021/07/22 02:07:35;;;;;;;9.70;6.22;;;;;;;18.07;71.62;100596.56;5055127;28;20037;-73
2021/07/22 02:10:06;;;;;;;14.23;6.60;;;;;;;18.00;72.39;100589.97;5054644;28;20124;-72
2021/07/22 02:12:37;;;;;;;11.38;7.07;;;;;;;17.96;72.68;100591.22;5054930;28;20049;-74
2021/07/22 02:15:06;;;;;;;12.32;7.68;;;;;;;17.68;74.33;100581.88;5053285;28;20076;-74
2021/07/22 02:17:35;;;;;;;11.60;8.13;;;;;;;18.00;73.04;100589.97;5053769;28;20053;-74
2021/07/22 02:20:05;;;;;;;11.32;7.00;;;;;;;17.88;73.73;100583.78;5054732;28;20091;-70
2021/07/22 02:22:34;;;;;;;11.23;7.50;;;;;;;17.71;73.47;100574.41;5055078;28;20075;-70
2021/07/22 02:25:02;;;;;;;10.80;7.70;;;;;;;17.65;73.59;100579.44;5054429;28;20068;-70
2021/07/22 02:27:35;;;;;;;12.77;7.38;;;;;;;17.68;73.97;100587.28;5054509;28;20150;-71
2021/07/22 02:30:05;;;;;;;12.47;8.20;;;;;;;17.53;74.60;100586.72;5054434;28;20048;-79
2021/07/22 02:32:33;;;;;;;13.00;7.85;;;;;;;17.52;75.23;100579.63;5054424;28;20495;-83
2021/07/22 02:35:01;;;;;;;13.23;7.90;;;;;;;17.35;76.32;100593.66;5054118;28;20072;-84
2021/07/22 02:37:30;;;;;;;12.27;8.23;;;;;;;17.20;77.94;100585.00;5054309;28;20052;-84
2021/07/22 02:39:58;;;;;;;13.00;7.50;;;;;;;17.28;78.01;100585.22;5053958;28;20052;-85
2021/07/22 02:42:26;;;;;;;12.68;8.07;;;;;;;17.64;76.00;100589.38;5054412;28;20051;-85
2021/07/22 02:44:56;;;;;;;11.48;7.80;;;;;;;17.54;76.31;100591.13;5053866;28;20045;-84
2021/07/22 02:47:26;;;;;;;11.93;7.80;;;;;;;17.58;76.27;100595.28;5054313;28;20094;-78
2021/07/22 02:49:54;;;;;;;13.25;8.63;;;;;;;17.34;77.62;100603.56;5053947;28;20037;-78
2021/07/22 02:52:22;;;;;;;15.40;8.05;;;;;;;17.31;77.61;100602.97;5054147;28;20094;-78
2021/07/22 02:54:51;;;;;;;13.88;8.07;;;;;;;17.36;77.88;100611.53;5054077;28;20041;-76
2021/07/22 02:57:19;;;;;;;15.98;8.57;;;;;;;17.31;77.93;100608.38;5053971;28;20103;-76
2021/07/22 02:59:47;;;;;;;13.32;7.82;;;;;;;17.23;79.39;100600.91;5052707;28;20056;-76
2021/07/22 03:02:19;;;;;;;13.95;8.07;;;;;;;17.16;79.69;100613.16;5053647;28;20033;-76
2021/07/22 03:04:48;;;;;;;14.63;8.05;;;;;;;17.14;80.04;100605.22;5053825;28;20063;-78
2021/07/22 03:07:20;;;;;;;14.53;8.20;;;;;;;17.12;80.62;100604.50;5053720;28;20483;-77
2021/07/22 03:09:49;;;;;;;13.70;8.65;;;;;;;17.30;80.23;100603.97;5051803;28;20049;-77
2021/07/22 03:12:17;;;;;;;12.63;8.38;;;;;;;17.35;79.32;100605.28;5053671;28;20091;-77
2021/07/22 03:14:46;;;;;;;11.48;7.53;;;;;;;17.53;78.46;100610.13;5053750;28;20041;-78
2021/07/22 03:17:14;;;;;;;11.65;7.95;;;;;;;17.47;78.86;100608.81;5053266;28;20076;-78
2021/07/22 03:19:44;;;;;;;12.23;7.50;;;;;;;17.37;79.38;100613.25;5052473;28;20423;-77
2021/07/22 03:22:16;;;;;;;12.20;7.53;;;;;;;17.56;78.04;100607.16;5053077;28;20045;-78
2021/07/22 03:24:44;;;;;;;11.85;7.55;;;;;;;17.59;77.79;100607.78;5053704;28;20045;-77
2021/07/22 03:27:13;;;;;;;13.23;7.88;;;;;;;17.51;78.42;100604.88;5053079;28;20554;-75
2021/07/22 03:29:41;;;;;;;13.75;8.07;;;;;;;17.63;77.79;100602.97;5053239;28;20135;-77
2021/07/22 03:32:29;;;;;;;13.20;7.97;;;;;;;17.59;78.04;100607.78;5053558;28;20052;-78
2021/07/22 03:34:59;;;;;;;11.40;7.93;;;;;;;17.53;78.83;100602.91;5053084;28;20070;-78
2021/07/22 03:37:28;;;;;;;13.52;7.57;;;;;;;17.52;78.76;100600.34;5053188;28;20091;-78
2021/07/22 03:39:56;;;;;;;13.95;7.60;;;;;;;17.43;79.26;100607.34;5052967;28;20060;-78
2021/07/22 03:42:27;;;;;;;13.75;7.93;;;;;;;17.31;80.08;100614.63;5053106;28;20115;-78
2021/07/22 03:44:56;;;;;;;12.93;8.27;;;;;;;17.25;81.03;100614.25;5052928;28;20472;-77
2021/07/22 03:47:24;;;;;;;11.65;8.10;;;;;;;17.29;81.13;100621.13;5053262;28;20049;-78
2021/07/22 03:49:52;;;;;;;12.73;8.00;;;;;;;17.37;80.11;100616.81;5053040;28;20045;-79
2021/07/22 03:52:22;;;;;;;12.82;8.05;;;;;;;17.59;77.80;100617.72;5052736;28;20044;-78
2021/07/22 03:54:50;;;;;;;11.85;7.70;;;;;;;17.81;77.18;100619.50;5052816;28;20072;-78
2021/07/22 03:57:19;;;;;;;12.50;7.80;;;;;;;17.71;78.18;100617.56;5052471;28;20048;-78
2021/07/22 03:59:48;;;;;;;13.35;8.18;;;;;;;17.67;78.62;100634.97;5053031;28;20047;-76
2021/07/22 04:02:16;;;;;;;14.85;8.27;;;;;;;17.54;79.34;100626.19;5052577;28;20049;-76
2021/07/22 04:04:46;;;;;;;12.60;7.82;;;;;;;17.66;78.02;100611.69;5052927;28;20199;-76
2021/07/22 04:07:14;;;;;;;14.57;7.35;;;;;;;17.93;76.43;100622.00;5052405;28;20045;-77
2021/07/22 04:09:45;;;;;;;14.80;7.93;;;;;;;17.98;75.97;100618.94;5052533;28;20510;-76
2021/07/22 04:12:17;;;;;;;10.48;7.47;;;;;;;18.56;73.84;100630.09;5052352;28;20483;-76
2021/07/22 04:14:45;;;;;;;10.85;7.45;;;;;;;19.30;69.99;100619.00;5052803;28;20075;-76
2021/07/22 04:17:14;;;;;;;12.93;7.97;;;;;;;19.84;66.83;100613.09;5052150;28;20067;-78
2021/07/22 04:19:44;;;;;;;11.60;7.47;;;;;;;20.64;63.49;100619.09;5053034;28;20053;-79
2021/07/22 04:22:13;;;;;;;12.82;7.18;;;;;;;21.01;61.66;100610.94;5057480;28;20048;-79
2021/07/22 04:24:44;;;;;;;11.82;6.75;;;;;;;21.30;60.45;100613.53;5059542;28;20147;-77
2021/07/22 04:27:12;;;;;;;12.38;7.18;;;;;;;21.64;59.04;100622.72;5058881;28;20065;-75
2021/07/22 04:29:41;;;;;;;11.57;7.18;;;;;;;21.51;59.01;100619.50;5059349;28;20068;-75
2021/07/22 04:32:10;;;;;;;11.00;6.65;;;;;;;22.62;55.80;100609.91;5059156;28;20037;-76
2021/07/22 04:34:38;;;;;;;11.93;6.95;;;;;;;22.73;55.29;100620.50;5059312;28;20048;-75
2021/07/22 04:37:07;;;;;;;10.95;6.43;;;;;;;22.05;56.68;100614.94;5058701;28;20044;-82
2021/07/22 04:39:35;;;;;;;11.38;7.00;;;;;;;22.75;54.74;100617.63;5059050;28;20049;-82
2021/07/22 04:42:05;;;;;;;10.73;6.45;;;;;;;23.56;51.99;100612.50;5058718;28;20041;-82
2021/07/22 04:44:33;;;;;;;11.40;6.78;;;;;;;23.88;50.78;100617.16;5058839;28;20446;-80
2021/07/22 04:47:04;;;;;;;13.90;6.75;;;;;;;22.46;54.09;100617.97;5058756;28;20052;-82
2021/07/22 04:49:33;;;;;;;10.77;6.07;;;;;;;21.52;57.65;100615.81;5059176;28;20041;-81
2021/07/22 04:52:01;;;;;;;9.98;6.30;;;;;;;21.05;58.08;100615.06;5059055;28;20488;-81
2021/07/22 04:54:29;;;;;;;12.70;6.50;;;;;;;21.00;58.54;100612.81;5058920;28;20048;-81
2021/07/22 04:56:58;;;;;;;10.82;6.63;;;;;;;20.86;59.83;100618.75;5058748;28;20049;-79
2021/07/22 04:59:27;;;;;;;10.15;6.22;;;;;;;20.88;59.49;100619.44;5058663;28;20044;-76
2021/07/22 05:01:56;;;;;;;11.98;6.38;;;;;;;20.76;58.93;100623.34;5058930;28;20067;-79
2021/07/22 05:04:26;;;;;;;11.75;6.40;;;;;;;20.63;60.19;100625.53;5057339;28;20073;-79
2021/07/22 05:06:54;;;;;;;11.88;6.95;;;;;;;20.88;58.90;100626.72;5058774;28;20044;-76
2021/07/22 05:09:22;;;;;;;11.57;6.45;;;;;;;21.13;58.60;100631.41;5058657;28;20392;-77
2021/07/22 05:11:54;;;;;;;12.15;6.47;;;;;;;21.47;57.88;100633.56;5058825;28;20098;-79
2021/07/22 05:14:23;;;;;;;13.13;6.47;;;;;;;22.36;54.52;100634.38;5058962;28;20041;-77
2021/07/22 05:16:52;;;;;;;10.30;6.72;;;;;;;23.05;52.88;100638.03;5059164;28;20045;-77
2021/07/22 05:19:21;;;;;;;12.48;6.50;;;;;;;24.38;49.09;100631.66;5058466;28;20049;-78
2021/07/22 05:21:50;;;;;;;11.55;6.30;;;;;;;24.01;49.72;100630.28;5058702;28;20049;-77
2021/07/22 05:24:18;;;;;;;9.88;6.38;;;;;;;23.63;50.17;100629.03;5058584;28;20051;-75
2021/07/22 05:26:49;;;;;;;13.95;6.63;;;;;;;24.45;48.09;100638.13;5058517;28;20048;-80
2021/07/22 05:29:18;;;;;;;13.27;6.85;;;;;;;23.88;49.71;100628.06;5058527;28;20444;-80
2021/07/22 05:31:46;;;;;;;11.63;6.07;;;;;;;23.31;51.94;100630.66;5058729;28;20049;-80
2021/07/22 05:34:16;;;;;;;13.85;6.63;;;;;;;24.81;49.51;100624.91;5054346;28;20090;-82
2021/07/22 05:36:44;;;;;;;13.05;7.18;;;;;;;24.98;48.63;100626.53;5055793;28;20045;-84
2021/07/22 05:39:12;;;;;;;12.25;6.97;;;;;;;24.63;49.59;100629.75;5055542;28;20060;-83
2021/07/22 05:41:41;;;;;;;12.45;7.10;;;;;;;25.33;47.55;100624.38;5055522;28;20079;-79
2021/07/22 05:44:09;;;;;;;11.45;6.63;;;;;;;25.13;47.85;100628.56;5055444;28;20056;-80
2021/07/22 05:46:37;;;;;;;13.35;6.60;;;;;;;25.05;48.65;100630.31;5055668;28;20052;-79
2021/07/22 05:49:06;;;;;;;13.43;6.68;;;;;;;24.65;48.68;100625.81;5055368;28;20045;-75
2021/07/22 05:51:36;;;;;;;12.05;6.25;;;;;;;25.62;46.81;100620.97;5055335;28;20037;-83
2021/07/22 05:54:05;;;;;;;14.18;6.88;;;;;;;26.51;44.72;100619.41;5055359;28;20049;-83
2021/07/22 05:56:33;;;;;;;10.80;6.32;;;;;;;26.33;44.17;100619.72;5054553;28;20052;-83
2021/07/22 05:59:02;;;;;;;10.88;6.82;;;;;;;26.14;45.30;100618.34;5054203;28;20045;-83
2021/07/22 06:01:33;;;;;;;9.00;5.75;;;;;;;26.71;43.96;100631.50;5054946;28;20124;-83
2021/07/22 06:04:01;;;;;;;12.18;6.57;;;;;;;27.13;42.80;100630.00;5055072;28;20555;-84
2021/07/22 06:06:29;;;;;;;12.55;5.90;;;;;;;27.25;42.97;100622.16;5054715;28;20499;-84
2021/07/22 06:09:01;;;;;;;11.95;6.57;;;;;;;27.46;41.95;100615.88;5055407;28;20067;-84
2021/07/22 06:11:29;;;;;;;11.13;5.60;;;;;;;27.34;42.01;100613.63;5054684;28;20462;-83
2021/07/22 06:13:59;;;;;;;16.30;5.43;;;;;;;27.52;41.20;100624.16;5055212;28;20048;-84
2021/07/22 06:16:30;;;;;;;10.13;5.93;;;;;;;27.32;41.73;100617.63;5054752;28;20045;-85
2021/07/22 06:18:58;;;;;;;10.32;5.70;;;;;;;28.11;40.28;100615.72;5054865;28;20136;-84
2021/07/22 06:21:47;;;;;;;11.35;5.72;;;;;;;27.75;40.51;100607.56;5055287;28;20128;-84
2021/07/22 06:24:16;;;;;;;12.18;5.80;;;;;;;28.03;39.72;100612.25;5054532;28;20045;-84
2021/07/22 06:26:44;;;;;;;11.38;5.45;;;;;;;28.53;39.10;100619.44;5053719;28;20057;-84
2021/07/22 06:29:12;;;;;;;8.35;5.20;;;;;;;28.67;39.13;100618.50;5054362;28;20053;-84
2021/07/22 06:31:41;;;;;;;9.75;5.55;;;;;;;28.73;38.11;100616.81;5054622;28;20045;-84
2021/07/22 06:34:11;;;;;;;8.52;5.45;;;;;;;28.78;38.16;100614.34;5054515;28;20041;-85
2021/07/22 06:36:40;;;;;;;10.73;5.25;;;;;;;29.07;37.93;100616.84;5054673;28;20412;-84
2021/07/22 06:39:08;;;;;;;9.50;5.40;;;;;;;29.14;38.10;100614.09;5054618;28;20387;-84
2021/07/22 06:41:38;;;;;;;9.02;4.57;;;;;;;29.71;36.69;100617.50;5054505;28;20052;-84
2021/07/22 06:44:06;;;;;;;11.35;5.45;;;;;;;29.56;37.17;100606.69;5054173;28;20380;-84
2021/07/22 06:46:34;;;;;;;10.98;6.05;;;;;;;29.78;37.49;100612.88;5054334;28;20045;-84
2021/07/22 06:49:03;;;;;;;12.50;6.13;;;;;;;30.19;36.28;100609.97;5054223;28;20571;-84
2021/07/22 06:51:31;;;;;;;14.95;7.00;;;;;;;30.45;35.80;100606.34;5054015;28;20127;-84
2021/07/22 06:54:01;;;;;;;10.38;6.40;;;;;;;30.91;34.80;100616.47;5054188;28;20049;-84
2021/07/22 06:56:30;;;;;;;11.05;5.75;;;;;;;30.18;36.85;100600.88;5053828;28;20538;-84
2021/07/22 06:59:00;;;;;;;11.38;5.25;;;;;;;30.56;35.87;100611.22;5054108;28;20052;-84
2021/07/22 07:01:28;;;;;;;12.13;5.50;;;;;;;30.62;35.85;100604.84;5054263;28;20064;-84
2021/07/22 07:03:56;;;;;;;13.20;6.07;;;;;;;30.09;36.96;100602.13;5054176;28;20041;-84
2021/07/22 07:06:24;;;;;;;9.68;5.47;;;;;;;29.74;37.13;100606.09;5053614;28;20143;-84
2021/07/22 07:08:52;;;;;;;10.60;5.70;;;;;;;28.39;40.15;100604.78;5053924;28;20055;-83
2021/07/22 07:11:21;;;;;;;7.55;4.97;;;;;;;28.24;40.14;100601.25;5052651;28;20458;-83
2021/07/22 07:13:49;;;;;;;8.07;5.10;;;;;;;28.21;41.47;100604.41;5053905;28;20041;-83
2021/07/22 07:16:19;;;;;;;7.60;5.18;;;;;;;27.95;41.08;100605.00;5053510;28;20072;-83
2021/07/22 07:18:48;;;;;;;8.13;4.57;;;;;;;28.12;40.10;100603.69;5053646;28;20164;-84
2021/07/22 07:21:17;;;;;;;8.13;4.57;;;;;;;28.24;39.62;100604.84;5053272;28;20044;-84
2021/07/22 07:23:45;;;;;;;7.40;4.22;;;;;;;28.18;39.08;100607.53;5053646;28;20041;-84
2021/07/22 07:26:14;;;;;;;6.38;4.32;;;;;;;27.83;39.97;100609.34;5053551;28;20075;-84
2021/07/22 07:28:42;;;;;;;7.70;4.15;;;;;;;27.51;39.67;100607.94;5053956;28;20048;-83
2021/07/22 07:31:11;;;;;;;9.30;4.07;;;;;;;27.53;40.06;100611.31;5053565;28;20045;-84
2021/07/22 07:33:40;;;;;;;8.60;4.25;;;;;;;27.39;40.90;100604.81;5053503;28;20041;-83
2021/07/22 07:36:09;;;;;;;7.85;4.20;;;;;;;27.59;40.94;100596.81;5053560;28;20381;-83
2021/07/22 07:38:37;;;;;;;8.48;4.55;;;;;;;27.48;40.68;100598.19;5054762;28;20051;-83
2021/07/22 07:41:05;;;;;;;7.03;3.90;;;;;;;27.30;39.92;100603.25;5054660;28;20099;-84
2021/07/22 07:43:34;;;;;;;8.60;4.40;;;;;;;27.31;39.94;100600.34;5055328;28;20041;-83
2021/07/22 07:46:02;;;;;;;10.15;4.25;;;;;;;27.43;40.18;100600.66;5053948;28;20090;-84
2021/07/22 07:48:31;;;;;;;9.75;4.75;;;;;;;27.32;41.04;100593.81;5053064;28;20058;-84
2021/07/22 07:51:05;;;;;;;13.85;4.07;;;;;;;27.19;41.59;100601.00;5053153;28;20049;-84
2021/07/22 07:53:33;;;;;;;6.88;4.13;;;;;;;27.09;41.06;100602.16;5053098;28;20049;-84
2021/07/22 07:56:04;;;;;;;7.45;4.10;;;;;;;27.22;41.32;100601.47;5052781;28;20069;-84
2021/07/22 07:58:32;;;;;;;9.07;3.92;;;;;;;27.14;42.24;100595.28;5052695;28;20087;-84
2021/07/22 08:01:01;;;;;;;9.15;4.18;;;;;;;27.29;41.87;100607.88;5053141;28;20052;-84
2021/07/22 08:03:29;;;;;;;6.97;4.15;;;;;;;27.33;42.03;100600.97;5052754;28;20056;-84
2021/07/22 08:05:58;;;;;;;6.15;4.00;;;;;;;27.21;41.04;100604.38;5052893;28;20484;-84
2021/07/22 08:08:27;;;;;;;8.18;4.43;;;;;;;27.20;42.27;100611.75;5053149;28;20041;-85
2021/07/22 08:10:58;;;;;;;8.43;4.22;;;;;;;27.07;41.23;100597.91;5052952;28;20047;-84
2021/07/22 08:13:27;;;;;;;8.20;3.95;;;;;;;27.17;42.81;100606.69;5052773;28;20061;-84
2021/07/22 08:15:57;;;;;;;7.80;3.95;;;;;;;27.27;42.37;100604.47;5053073;28;20049;-84
2021/07/22 08:18:25;;;;;;;6.22;3.80;;;;;;;27.31;41.77;100600.34;5052382;28;20107;-84
2021/07/22 08:20:53;;;;;;;6.57;3.92;;;;;;;27.23;41.74;100596.84;5053143;28;20075;-84
2021/07/22 08:23:43;;;;;;;7.65;4.00;;;;;;;27.41;41.54;100593.66;5052859;28;20064;-84
2021/07/22 08:26:11;;;;;;;9.48;4.30;;;;;;;27.58;40.11;100592.38;5053371;28;20069;-84
2021/07/22 08:28:40;;;;;;;6.57;4.07;;;;;;;27.49;40.26;100590.81;5051327;28;20491;-84
2021/07/22 08:31:08;;;;;;;8.05;4.20;;;;;;;27.50;41.35;100590.63;5053041;28;20037;-84
2021/07/22 08:33:36;;;;;;;7.22;4.10;;;;;;;27.50;40.79;100592.50;5052634;28;20045;-84
2021/07/22 08:36:05;;;;;;;9.35;4.05;;;;;;;27.34;40.97;100588.13;5052921;28;20091;-84
2021/07/22 08:38:33;;;;;;;7.32;4.07;;;;;;;27.41;41.56;100593.66;5052675;28;20045;-84
2021/07/22 08:41:04;;;;;;;7.90;4.05;;;;;;;27.48;41.70;100597.34;5052959;28;20511;-84
2021/07/22 08:43:33;;;;;;;7.88;4.20;;;;;;;27.42;40.79;100590.75;5052792;28;20037;-84
2021/07/22 08:46:01;;;;;;;6.47;4.10;;;;;;;27.27;40.94;100593.53;5052583;28;20045;-84
2021/07/22 08:48:30;;;;;;;10.23;4.22;;;;;;;27.61;40.84;100578.31;5052396;28;20037;-84
2021/07/22 08:51:00;;;;;;;6.18;4.03;;;;;;;27.70;40.49;100581.78;5051625;28;20095;-84
2021/07/22 08:53:28;;;;;;;7.53;4.50;;;;;;;27.84;40.28;100584.47;5052396;28;20051;-84
2021/07/22 08:55:58;;;;;;;7.35;4.50;;;;;;;27.85;39.36;100586.16;5052693;28;20423;-84
2021/07/22 08:58:28;;;;;;;6.78;4.20;;;;;;;27.55;39.19;100576.34;5052353;28;20147;-84
2021/07/22 09:01:01;;;;;;;9.82;4.40;;;;;;;27.42;40.04;100578.97;5052728;28;20041;-84
2021/07/22 09:03:30;;;;;;;7.72;4.45;;;;;;;27.38;39.74;100578.47;5052355;28;20041;-84
2021/07/22 09:05:58;;;;;;;7.50;4.28;;;;;;;27.30;40.50;100587.66;5052834;28;20099;-84
2021/07/22 09:08:26;;;;;;;7.25;4.30;;;;;;;27.59;40.12;100583.13;5053748;28;20145;-84
2021/07/22 09:11:07;;;;;;;6.78;4.10;;;;;;;27.59;39.95;100586.72;5056422;28;20045;-84
2021/07/22 09:13:37;;;;;;;9.77;4.30;;;;;;;27.76;40.54;100581.00;5056225;28;20066;-84
2021/07/22 09:16:08;;;;;;;13.15;4.28;;;;;;;27.85;38.35;100575.19;5056512;28;20072;-84
2021/07/22 09:18:38;;;;;;;8.25;4.20;;;;;;;27.83;38.38;100582.78;5055869;28;20056;-83
2021/07/22 09:21:23;;;;;;;10.13;4.90;;;;;;;27.79;38.18;100575.97;5055950;28;20051;-84
2021/07/22 09:24:04;;;;;;;7.45;4.30;;;;;;;28.06;37.72;100576.22;5054260;28;20107;-84
2021/07/22 09:26:33;;;;;;;7.55;4.13;;;;;;;27.81;38.66;100573.91;5055963;28;20094;-84
2021/07/22 09:29:07;;;;;;;9.18;4.10;;;;;;;27.79;38.12;100570.50;5056393;28;20049;-84
2021/07/22 09:31:36;;;;;;;7.55;4.10;;;;;;;27.64;38.49;100573.28;5055890;28;20044;-83
2021/07/22 09:34:16;;;;;;;6.85;4.30;;;;;;;27.76;38.46;100570.91;5056083;28;20045;-84
2021/07/22 09:36:44;;;;;;;9.15;4.38;;;;;;;28.02;36.77;100569.44;5055452;28;20099;-84
2021/07/22 09:39:28;;;;;;;11.35;4.60;;;;;;;28.06;37.30;100573.47;5055683;28;20059;-84
2021/07/22 09:42:01;;;;;;;9.20;4.75;;;;;;;28.24;36.25;100569.19;5054701;28;20139;-84
2021/07/22 09:44:35;;;;;;;7.15;4.60;;;;;;;28.44;36.22;100569.38;5055496;28;20140;-85
2021/07/22 09:47:28;;;;;;;10.43;4.75;;;;;;;28.43;35.16;100572.31;5055391;28;20487;-84
2021/07/22 09:50:08;;;;;;;;;;;;;;;28.44;35.80;100572.09;5056249;28;20067;-84
2021/07/22 09:52:36;;;;;;;9.77;4.68;;;;;;;28.52;35.59;100558.22;5053934;28;19964;-84
2021/07/22 09:55:28;;;;;;;8.57;4.32;;;;;;;28.23;33.93;100564.75;5055456;28;20099;-84
2021/07/22 09:57:57;;;;;;;8.10;4.10;;;;;;;28.08;34.35;100564.00;5055777;28;20095;-84
2021/07/22 10:00:28;;;;;;;11.23;5.07;;;;;;;27.87;35.10;100562.13;5053823;28;20132;-84
2021/07/22 10:03:00;;;;;;;7.28;4.35;;;;;;;28.05;35.03;100558.06;5055687;28;20403;-84
2021/07/22 10:05:30;;;;;;;7.00;4.25;;;;;;;28.29;33.34;100554.94;5054497;28;20063;-84
2021/07/22 10:08:03;;;;;;;7.35;4.35;;;;;;;28.39;33.64;100558.16;5055440;28;20136;-85
2021/07/22 10:10:32;;;;;;;7.65;4.55;;;;;;;28.52;33.07;100555.50;5053710;28;20495;-84
2021/07/22 10:13:03;;;;;;;8.32;4.72;;;;;;;28.43;32.35;100556.69;5055420;28;20410;-84
2021/07/22 10:15:36;;;;;;;7.90;4.70;;;;;;;28.60;32.07;100549.00;5055281;28;20422;-85
2021/07/22 10:18:07;;;;;;;7.32;4.43;;;;;;;28.75;32.42;100546.94;5054777;28;20041;-84
2021/07/22 10:20:36;;;;;;;8.75;4.15;;;;;;;28.83;31.29;100558.81;5054162;28;20084;-84
2021/07/22 10:23:05;;;;;;;7.88;4.68;;;;;;;28.86;30.94;100550.19;5054736;28;20564;-84
2021/07/22 10:25:33;;;;;;;8.00;4.25;;;;;;;28.99;30.31;100544.78;5054600;28;20041;-85
2021/07/22 10:28:03;;;;;;;6.53;4.43;;;;;;;28.74;30.05;100541.66;5054882;28;20139;-84
2021/07/22 10:30:33;;;;;;;7.35;4.50;;;;;;;28.84;30.05;100542.13;5054915;28;20056;-88
2021/07/22 10:33:03;;;;;;;7.95;4.28;;;;;;;28.79;31.45;100539.16;5054951;28;20059;-84
2021/07/22 10:35:32;;;;;;;7.65;4.10;;;;;;;28.79;30.34;100537.28;5055081;28;20048;-84
2021/07/22 10:38:05;;;;;;;6.88;4.25;;;;;;;28.77;30.35;100538.53;5054595;28;20049;-84
2021/07/22 10:40:50;;;;;;;6.85;4.30;;;;;;;28.69;30.73;100534.06;5054244;28;20041;-85
2021/07/22 10:43:36;;;;;;;7.38;4.88;;;;;;;28.69;30.37;100534.06;5054720;28;20076;-85
2021/07/22 10:46:08;;;;;;;6.55;4.28;;;;;;;28.82;29.69;100527.78;5043942;28;20140;-84
2021/07/22 10:48:36;;;;;;;6.68;4.30;;;;;;;28.76;29.77;100536.84;5054283;28;20045;-84
2021/07/22 10:51:09;;;;;;;8.85;4.68;;;;;;;28.77;30.85;100531.16;5054668;28;20049;-84
2021/07/22 10:53:53;;;;;;;7.40;4.70;;;;;;;28.87;29.93;100527.19;5054172;28;20041;-84
2021/07/22 10:56:53;;;;;;;6.88;4.10;;;;;;;28.56;30.90;100527.63;5054529;28;20045;-84
2021/07/22 10:59:55;;;;;;;6.72;4.43;;;;;;;28.48;31.39;100521.28;5054524;28;20135;-83
2021/07/22 11:02:42;;;;;;;6.85;4.57;;;;;;;28.58;30.83;100520.06;5054057;28;20044;-84
2021/07/22 11:05:11;;;;;;;9.77;4.70;;;;;;;28.46;30.50;100515.13;5054698;28;20392;-84
2021/07/22 11:07:40;;;;;;;11.23;4.95;;;;;;;28.40;31.79;100524.19;5053666;28;20076;-84
2021/07/22 11:10:51;;;;;;;8.80;4.45;;;;;;;28.51;30.96;100523.63;5053952;28;20182;-84
2021/07/22 11:13:45;;;;;;;9.25;4.70;;;;;;;28.51;29.59;100515.38;5054053;28;20060;-84
2021/07/22 11:16:22;;;;;;;7.10;4.55;;;;;;;28.32;31.54;100516.13;5053789;28;20079;-84
2021/07/22 11:18:56;;;;;;;7.28;4.78;;;;;;;28.46;31.66;100517.88;5053468;28;20045;-84
2021/07/22 11:21:27;;;;;;;8.80;5.18;;;;;;;28.65;31.88;100509.94;5054029;28;20055;-84
2021/07/22 11:23:58;;;;;;;13.15;4.55;;;;;;;28.63;30.69;100514.81;5053654;28;20045;-84
2021/07/22 11:26:29;;;;;;;8.88;4.85;;;;;;;28.58;30.62;100515.44;5053814;28;20558;-84
2021/07/22 11:29:13;;;;;;;9.63;4.97;;;;;;;28.56;30.32;100503.78;5053742;28;20148;-84
2021/07/22 11:31:45;;;;;;;11.02;5.18;;;;;;;28.62;32.09;100508.47;5052764;28;20095;-84
2021/07/22 11:34:26;;;;;;;9.02;4.90;;;;;;;28.67;31.62;100500.50;5053891;28;20077;-84
2021/07/22 11:36:59;;;;;;;7.10;4.60;;;;;;;28.70;31.09;100504.72;5053291;28;20041;-84